| time (UTC) | temp C | wind direction | speed KPH | gust KPH | rain 1hr cm | rain 24hr cm | rain mn cm | humidity % | barometer mb |
| 20260510204648 | 14 | 113 | 1.6 | 3.2 | 0.00 | 1.09 | 0.00 | 36 | 1021.2 |
| 20260510203629 | 14 | 113 | 3.2 | 3.2 | 0.00 | 1.09 | 0.00 | 40 | 1021.2 |
| 20260510202606 | 14 | 121 | 4.8 | 6.4 | 0.00 | 1.09 | 0.00 | 41 | 1021.2 |
| 20260510201528 | 14 | 282 | 3.2 | 3.2 | 0.00 | 1.09 | 0.00 | 38 | 1021.4 |
| 20260510200450 | 14 | 135 | 3.2 | 4.8 | 0.00 | 1.09 | 0.00 | 37 | 1021.4 |
| 20260510195432 | 15 | 113 | 3.2 | 3.2 | 0.00 | 1.09 | 0.00 | 37 | 1021.3 |
| 20260510194355 | 15 | 113 | 1.6 | 3.2 | 0.00 | 1.09 | 0.00 | 36 | 1021.2 |
| 20260510193358 | 15 | 70 | 6.4 | 9.7 | 0.00 | 1.09 | 0.00 | 36 | 1021.2 |
| 20260510192253 | 15 | 113 | 3.2 | 3.2 | 0.00 | 1.09 | 0.00 | 38 | 1021.3 |
| 20260510191217 | 15 | 93 | 6.4 | 9.7 | 0.00 | 1.09 | 0.00 | 34 | 1021.4 |
| 20260510190200 | 15 | 158 | 3.2 | 4.8 | 0.00 | 1.09 | 0.00 | 32 | 1021.2 |
| 20260510185122 | 15 | 113 | 3.2 | 4.8 | 0.00 | 1.09 | 0.00 | 32 | 1021.0 |
| 20260510184102 | 15 | 135 | 3.2 | 3.2 | 0.00 | 1.09 | 0.00 | 34 | 1020.9 |
| 20260510183039 | 15 | 158 | 3.2 | 3.2 | 0.00 | 1.09 | 0.00 | 32 | 1020.6 |
| 20260510182002 | 15 | 135 | 1.6 | 3.2 | 0.00 | 1.09 | 0.00 | 34 | 1020.6 |
| 20260510180925 | 15 | 158 | 3.2 | 4.8 | 0.00 | 1.09 | 0.00 | 33 | 1020.6 |
| 20260510175848 | 15 | 260 | 3.2 | 4.8 | 0.00 | 1.09 | 0.00 | 30 | 1020.6 |
| 20260510174829 | 16 | 86 | 4.8 | 6.4 | 0.00 | 1.09 | 0.00 | 36 | 1020.5 |
| 20260510173808 | 15 | 128 | 4.8 | 6.4 | 0.00 | 1.09 | 0.00 | 35 | 1020.6 |
| 20260510172723 | 14 | 135 | 1.6 | 3.2 | 0.00 | 1.09 | 0.00 | 33 | 1020.8 |
| 20260510171646 | 15 | 126 | 3.2 | 4.8 | 0.00 | 1.09 | 0.00 | 35 | 1020.9 |
| 20260510170627 | 15 | 113 | 1.6 | 3.2 | 0.00 | 1.09 | 0.00 | 36 | 1020.6 |
| 20260510165545 | 15 | 113 | 3.2 | 4.8 | 0.00 | 1.09 | 0.00 | 36 | 1020.6 |
| 20260510164526 | 15 | 113 | 1.6 | 1.6 | 0.00 | 1.09 | 0.00 | 40 | 1020.6 |
| 20260510163451 | 14 | 295 | 4.8 | 6.4 | 0.00 | 1.09 | 0.00 | 36 | 1020.6 |
| 20260510162452 | 14 | 214 | 3.2 | 3.2 | 0.00 | 1.09 | 0.00 | 39 | 1020.5 |
| 20260510161415 | 14 | 113 | 6.4 | 9.7 | 0.00 | 1.09 | 0.00 | 43 | 1020.5 |
| 20260510160318 | 14 | 55 | 3.2 | 6.4 | 0.00 | 1.09 | 0.00 | 47 | 1020.3 |
| 20260510155259 | 13 | 158 | 1.6 | 4.8 | 0.00 | 1.09 | 0.00 | 47 | 1020.1 |
| 20260510154222 | 13 | 264 | 3.2 | 4.8 | 0.00 | 1.09 | 0.00 | 43 | 1020.1 |
| 20260510153203 | 13 | 234 | 1.6 | 3.2 | 0.00 | 1.09 | 0.00 | 47 | 1020.1 |
| 20260510152141 | 13 | 135 | 1.6 | 4.8 | 0.00 | 1.09 | 0.00 | 47 | 1020.1 |
| 20260510151056 | 12 | 158 | 3.2 | 4.8 | 0.00 | 1.09 | 0.00 | 44 | 1019.9 |
| 20260510150020 | 13 | 113 | 1.6 | 3.2 | 0.00 | 1.09 | 0.00 | 46 | 1019.9 |
| 20260510144956 | 13 | 267 | 4.8 | 8.0 | 0.00 | 1.09 | 0.00 | 49 | 1019.6 |
| 20260510143940 | 13 | 113 | 3.2 | 4.8 | 0.00 | 1.09 | 0.00 | 46 | 1019.6 |
| 20260510142849 | 13 | 1.6 | 1.6 | 0.00 | 1.09 | 0.00 | 46 | 1019.6 | |
| 20260510141824 | -17 | 0.0 | 0.0 | 0.00 | 1.09 | 0.00 | 1019.6 | ||
| 20260510140801 | -17 | 0.0 | 0.0 | 0.00 | 1.09 | 0.00 | 1019.8 | ||
| 20260510135724 | -17 | 0.0 | 0.0 | 0.00 | 1.09 | 0.00 | 1019.8 | ||
| 20260510134647 | -17 | 0.0 | 0.0 | 0.00 | 1.09 | 0.00 | 1019.6 | ||
| 20260510133616 | -17 | 0.0 | 0.0 | 0.00 | 1.09 | 0.00 | 1019.4 | ||
| 20260510132546 | 11 | 76 | 6.4 | 8.0 | 0.00 | 1.09 | 0.00 | 48 | 1019.4 |
| 20260510131527 | 11 | 128 | 6.4 | 8.0 | 0.00 | 1.09 | 0.00 | 51 | 1018.9 |
| 20260510130450 | 11 | 84 | 3.2 | 4.8 | 0.00 | 1.09 | 0.00 | 56 | 1018.7 |
| 20260510125431 | 10 | 113 | 3.2 | 6.4 | 0.00 | 1.09 | 0.00 | 63 | 1018.5 |
| 20260510124354 | 9 | 113 | 3.2 | 4.8 | 0.00 | 1.09 | 0.00 | 68 | 1018.5 |
| 20260510123330 | 10 | 135 | 3.2 | 8.0 | 0.00 | 1.09 | 0.00 | 66 | 1018.4 |
| 20260510122252 | 8 | 115 | 3.2 | 6.4 | 0.00 | 1.09 | 0.00 | 70 | 1018.3 |
| 20260510121221 | 8 | 119 | 4.8 | 6.4 | 0.00 | 1.09 | 0.00 | 73 | 1018.0 |
| 20260510120151 | 8 | 113 | 3.2 | 4.8 | 0.00 | 1.09 | 0.00 | 74 | 1017.7 |
| 20260510115152 | 8 | 0.0 | 0.0 | 0.00 | 1.09 | 0.00 | 74 | 1017.5 | |
| 20260510114054 | 8 | 128 | 3.2 | 4.8 | 0.00 | 1.09 | 0.00 | 75 | 1017.2 |
| 20260510113020 | 7 | 135 | 1.6 | 4.8 | 0.00 | 1.09 | 0.00 | 79 | 1017.0 |
| 20260510112027 | 7 | 148 | 3.2 | 4.8 | 0.00 | 1.09 | 0.00 | 83 | 1017.0 |
| 20260510110921 | 7 | 0.0 | 0.0 | 0.00 | 1.09 | 0.00 | 87 | 1016.7 | |
| 20260510105905 | 7 | 0.0 | 0.0 | 0.00 | 1.09 | 0.00 | 89 | 1016.6 | |
| 20260510104826 | 7 | 0.0 | 0.0 | 0.00 | 1.09 | 0.00 | 89 | 1016.0 | |
| 20260510103802 | 7 | 0.0 | 0.0 | 0.00 | 1.09 | 0.00 | 90 | 1015.8 | |
| 20260510102746 | 7 | 0.0 | 0.0 | 0.00 | 1.09 | 0.00 | 90 | 1015.5 | |
| 20260510101650 | 7 | 0.0 | 0.0 | 0.00 | 1.09 | 0.00 | 90 | 1015.3 | |
| 20260510100625 | 7 | 0.0 | 0.0 | 0.00 | 1.09 | 0.00 | 90 | 1015.5 | |
| 20260510095555 | 7 | 0.0 | 0.0 | 0.00 | 1.09 | 0.00 | 89 | 1015.5 | |
| 20260510094523 | 7 | 1.6 | 1.6 | 0.00 | 1.09 | 0.00 | 90 | 1015.3 | |
| 20260510093446 | 7 | 0.0 | 0.0 | 0.00 | 1.09 | 0.00 | 92 | 1015.1 | |
| 20260510092422 | -17 | 0.0 | 0.0 | 0.00 | 1.09 | 0.00 | 1014.8 | ||
| 20260510091345 | 7 | 0.0 | 0.0 | 0.00 | 1.09 | 0.00 | 92 | 1014.6 | |
| 20260510090320 | -17 | 0.0 | 0.0 | 0.00 | 1.09 | 0.00 | 1014.4 | ||
| 20260510085249 | 7 | 0.0 | 0.0 | 0.00 | 1.09 | 0.00 | 91 | 1014.1 | |
| 20260510084250 | 7 | 0.0 | 0.0 | 0.00 | 1.09 | 0.00 | 91 | 1014.2 | |
| 20260510083153 | 7 | 0.0 | 0.0 | 0.00 | 1.09 | 0.00 | 90 | 1014.2 | |
| 20260510082129 | 7 | 0.0 | 0.0 | 0.00 | 1.09 | 0.00 | 90 | 1014.0 | |
| 20260510081046 | 7 | 0.0 | 0.0 | 0.00 | 1.09 | 0.00 | 88 | 1013.8 | |
| 20260510080016 | 7 | 0.0 | 0.0 | 0.00 | 1.09 | 0.00 | 88 | 1013.5 | |
| 20260510074957 | 7 | 0.0 | 0.0 | 0.00 | 1.09 | 0.00 | 87 | 1013.2 | |
| 20260510073920 | 8 | 0.0 | 0.0 | 0.00 | 1.09 | 0.00 | 85 | 1013.1 | |
| 20260510072901 | 8 | 0.0 | 0.0 | 0.00 | 1.09 | 0.00 | 84 | 1013.1 | |
| 20260510071824 | 8 | 0.0 | 0.0 | 0.00 | 1.09 | 0.00 | 83 | 1012.9 | |
| 20260510070747 | 8 | 0.0 | 0.0 | 0.00 | 1.09 | 0.00 | 83 | 1012.8 | |
| 20260510065723 | -17 | 0.0 | 0.0 | 0.00 | 1.09 | 0.00 | 1012.8 | ||
| 20260510064647 | 9 | 135 | 3.2 | 4.8 | 0.00 | 1.09 | 0.00 | 81 | 1012.6 |
| 20260510063627 | -17 | 0.0 | 0.0 | 0.00 | 1.09 | 0.00 | 1012.6 | ||
| 20260510062551 | 10 | 135 | 3.2 | 4.8 | 0.00 | 1.09 | 0.00 | 81 | 1012.6 |
| 20260510061532 | 10 | 164 | 6.4 | 8.0 | 0.00 | 1.09 | 0.00 | 80 | 1012.7 |
| 20260510060455 | 10 | 125 | 3.2 | 6.4 | 0.00 | 1.09 | 0.00 | 89 | 1012.3 |
| 20260510055419 | 11 | 119 | 4.8 | 8.0 | 0.00 | 1.09 | 0.00 | 95 | 1011.9 |
| 20260510054400 | 11 | 0.0 | 0.0 | 0.00 | 1.09 | 0.00 | 96 | 1011.8 | |
| 20260510053323 | 11 | 0.0 | 0.0 | 0.00 | 1.09 | 0.00 | 95 | 1011.7 | |
| 20260510052246 | 11 | 0.0 | 0.0 | 0.00 | 1.09 | 0.00 | 95 | 1011.6 | |
| 20260510051247 | 11 | 0.0 | 0.0 | 0.00 | 1.09 | 0.00 | 95 | 1011.4 | |
| 20260510050145 | 11 | 0.0 | 0.0 | 0.00 | 1.09 | 0.00 | 95 | 1010.9 | |
| 20260510045127 | 11 | 0.0 | 0.0 | 0.00 | 1.09 | 0.00 | 95 | 1010.9 | |
| 20260510044049 | -17 | 0.0 | 0.0 | 0.00 | 1.09 | 0.00 | 1010.0 | ||
| 20260510043025 | 11 | 0.0 | 0.0 | 0.08 | 1.09 | 0.00 | 93 | 1009.9 | |
| 20260510041954 | -17 | 0.0 | 0.0 | 0.15 | 1.09 | 0.00 | 1009.9 | ||
| 20260510040931 | 11 | 0.0 | 0.0 | 0.20 | 1.09 | 0.00 | 94 | 1009.9 | |
| 20260510035848 | 11 | 0.0 | 0.0 | 0.20 | 1.09 | 1.09 | 94 | 1009.8 | |
| 20260510035323 | 11 | 0.0 | 0.0 | 0.20 | 1.09 | 1.09 | 95 | ||
| 20260510034947 | 12 | 0.0 | 0.0 | 0.20 | 1.09 | 1.09 | 95 | 1009.8 | |
| 20260510033922 | 12 | 0.0 | 0.0 | 0.20 | 1.09 | 1.09 | 95 | 1010.0 | |
| 20260510032846 | 12 | 0.0 | 0.0 | 0.13 | 1.02 | 1.02 | 95 | 1010.2 | |
| 20260510031827 | 12 | 158 | 1.6 | 4.8 | 0.05 | 0.91 | 0.91 | 95 | 1010.0 |
| 20260510030750 | 11 | 0.0 | 0.0 | 0.03 | 0.91 | 0.89 | 94 | 1010.0 | |
| 20260510025731 | 11 | 0.0 | 0.0 | 0.03 | 0.91 | 0.89 | 94 | 1010.0 | |
| 20260510024715 | 11 | 0.0 | 0.0 | 0.03 | 0.91 | 0.89 | 94 | 1009.9 | |
| 20260510023618 | 12 | 0.0 | 0.0 | 0.03 | 0.91 | 0.89 | 94 | 1009.6 | |
| 20260510022559 | 12 | 0.0 | 0.0 | 0.03 | 0.91 | 0.89 | 95 | 1010.1 | |
| 20260510021537 | 11 | 3.2 | 4.8 | 0.00 | 0.89 | 0.86 | 94 | 1010.1 | |
| 20260510020458 | 11 | 0.0 | 0.0 | 0.00 | 0.89 | 0.86 | 93 | 1009.4 | |
| 20260510015416 | 11 | 0.0 | 0.0 | 0.00 | 0.89 | 0.86 | 93 | 1009.3 | |
| 20260510014356 | 11 | 0.0 | 0.0 | 0.00 | 0.89 | 0.86 | 92 | 1009.2 | |
| 20260510013320 | 11 | 0.0 | 0.0 | 0.00 | 0.89 | 0.86 | 92 | 1009.1 | |
| 20260510012301 | 11 | 0.0 | 0.0 | 0.00 | 0.89 | 0.86 | 91 | 1009.1 | |
| 20260510011219 | 11 | 0.0 | 0.0 | 0.00 | 0.89 | 0.86 | 90 | 1009.1 | |
| 20260510010201 | 11 | 0.0 | 0.0 | 0.00 | 0.89 | 0.86 | 89 | 1009.0 | |
| 20260510005138 | 12 | 0.0 | 0.0 | 0.00 | 0.89 | 0.86 | 90 | 1008.9 | |
| 20260510004048 | 12 | 0.0 | 0.0 | 0.00 | 0.89 | 0.86 | 90 | 1008.9 | |
| 20260510003023 | 12 | 0.0 | 0.0 | 0.00 | 0.91 | 0.86 | 90 | 1008.9 | |
| 20260510001946 | 13 | 0.0 | 0.0 | 0.00 | 0.94 | 0.86 | 91 | 1008.9 | |
| 20260510000929 | 13 | 1.6 | 3.2 | 0.08 | 0.94 | 0.86 | 92 | 1008.9 | |
| 20260509235852 | 13 | 0.0 | 0.0 | 0.33 | 0.97 | 0.86 | 92 | 1008.9 | |
| 20260509234815 | 13 | 0.0 | 0.0 | 0.71 | 0.99 | 0.86 | 93 | 1008.8 | |
| 20260509233756 | 13 | 158 | 1.6 | 3.2 | 0.86 | 0.99 | 0.86 | 92 | 1008.8 |
| 20260509232719 | 13 | 0.0 | 1.6 | 0.86 | 1.02 | 0.86 | 93 | 1008.6 | |
| 20260509231655 | 12 | 158 | 3.2 | 4.8 | 0.86 | 1.04 | 0.86 | 91 | 1009.1 |
| 20260509230632 | 13 | 244 | 4.8 | 6.4 | 0.74 | 0.94 | 0.74 | 90 | 1008.3 |
| 20260509225632 | 13 | 270 | 4.8 | 6.4 | 0.46 | 0.69 | 0.46 | 85 | 1008.3 |
| 20260509224532 | 15 | 249 | 6.4 | 6.4 | 0.08 | 0.33 | 0.08 | 77 | 1008.3 |
| 20260509223456 | 20 | 190 | 4.8 | 8.0 | 0.00 | 0.28 | 0.00 | 53 | 1006.4 |
| 20260509222431 | 20 | 135 | 3.2 | 4.8 | 0.00 | 0.28 | 0.00 | 55 | 1005.9 |
| 20260509221414 | 20 | 158 | 3.2 | 3.2 | 0.00 | 0.30 | 0.00 | 54 | 1006.2 |
| 20260509220330 | 21 | 113 | 4.8 | 6.4 | 0.00 | 0.33 | 0.00 | 54 | 1006.2 |
| 20260509215253 | 21 | 113 | 1.6 | 3.2 | 0.00 | 0.36 | 0.00 | 55 | 1006.1 |
| 20260509214216 | 21 | 135 | 3.2 | 4.8 | 0.00 | 0.38 | 0.00 | 54 | 1006.0 |
| 20260509213157 | 21 | 135 | 4.8 | 6.4 | 0.00 | 0.38 | 0.00 | 55 | 1006.0 |
| 20260509212122 | 22 | 135 | 3.2 | 4.8 | 0.00 | 0.38 | 0.00 | 53 | 1006.0 |
| 20260509211057 | 22 | 113 | 4.8 | 9.7 | 0.00 | 0.38 | 0.00 | 55 | 1006.0 |
| 20260509210020 | 22 | 230 | 4.8 | 8.0 | 0.00 | 0.38 | 0.00 | 57 | 1006.4 |